createdAt,value
2022-10-05T00:01:43.756Z,18.05
2022-10-05T00:04:18.644Z,18.16
2022-10-05T00:06:46.865Z,18.00
2022-10-05T00:09:18.545Z,17.81
2022-10-05T00:11:45.688Z,17.77
2022-10-05T00:14:33.028Z,17.74
2022-10-05T00:17:01.073Z,17.83
2022-10-05T00:19:33.017Z,18.02
2022-10-05T00:22:01.335Z,17.89
2022-10-05T00:24:28.449Z,17.95
2022-10-05T00:26:58.110Z,17.86
2022-10-05T00:29:25.789Z,18.08
2022-10-05T00:31:52.949Z,18.03
2022-10-05T00:34:20.138Z,18.14
2022-10-05T00:36:48.021Z,18.18
2022-10-05T00:39:15.422Z,18.20
2022-10-05T00:42:01.219Z,18.16
2022-10-05T00:44:41.190Z,18.09
2022-10-05T00:47:18.186Z,18.26
2022-10-05T00:49:52.685Z,18.26
2022-10-05T00:52:23.577Z,18.05
2022-10-05T00:54:50.941Z,18.14
2022-10-05T00:57:21.602Z,18.17
2022-10-05T00:59:56.102Z,18.14
2022-10-05T01:02:34.405Z,18.08
2022-10-05T01:05:03.828Z,18.10
2022-10-05T01:07:31.666Z,18.15
2022-10-05T01:10:17.702Z,18.15
2022-10-05T01:13:06.667Z,17.98
2022-10-05T01:15:41.620Z,18.28
2022-10-05T01:18:17.233Z,18.09
2022-10-05T01:21:13.888Z,18.15
2022-10-05T01:23:59.999Z,17.93
2022-10-05T01:26:45.386Z,18.00
2022-10-05T01:29:19.144Z,18.02
2022-10-05T01:31:55.293Z,18.07
2022-10-05T01:34:26.147Z,17.87
2022-10-05T01:36:56.305Z,18.02
2022-10-05T01:39:26.689Z,17.98
2022-10-05T01:42:13.448Z,18.03
2022-10-05T01:44:42.777Z,17.99
2022-10-05T01:47:37.568Z,18.10
2022-10-05T01:50:08.167Z,18.22
2022-10-05T01:52:38.518Z,18.25
2022-10-05T01:55:24.767Z,18.28
2022-10-05T01:57:51.854Z,18.10
2022-10-05T02:00:19.593Z,18.05
2022-10-05T02:02:57.250Z,18.04
2022-10-05T02:05:24.891Z,17.99
2022-10-05T02:07:53.911Z,18.10
2022-10-05T02:10:44.357Z,17.88
2022-10-05T02:13:13.660Z,17.86
2022-10-05T02:15:43.194Z,17.98
2022-10-05T02:18:11.214Z,17.96
2022-10-05T02:20:39.191Z,17.80
2022-10-05T02:23:11.565Z,17.88
2022-10-05T02:25:39.671Z,17.90
2022-10-05T02:28:08.791Z,17.81
2022-10-05T02:30:38.274Z,17.67
2022-10-05T02:33:07.326Z,17.73
2022-10-05T02:35:34.742Z,17.69
2022-10-05T02:38:01.878Z,17.88
2022-10-05T02:40:49.060Z,17.81
2022-10-05T02:43:16.442Z,17.63
2022-10-05T02:45:50.875Z,17.75
2022-10-05T02:48:38.590Z,17.89
2022-10-05T02:51:08.725Z,17.76
2022-10-05T02:53:44.881Z,17.67
2022-10-05T02:56:18.255Z,17.62
2022-10-05T02:58:45.612Z,17.77
2022-10-05T03:01:31.907Z,17.70
2022-10-05T03:03:59.251Z,17.47
2022-10-05T03:06:27.580Z,17.54
2022-10-05T03:09:05.747Z,17.51
2022-10-05T03:11:52.435Z,17.61
2022-10-05T03:14:25.857Z,17.69
2022-10-05T03:17:05.557Z,17.52
2022-10-05T03:19:32.649Z,17.58
2022-10-05T03:22:09.971Z,17.65
2022-10-05T03:24:37.759Z,17.64
2022-10-05T03:27:17.341Z,17.63
2022-10-05T03:29:47.663Z,17.71
2022-10-05T03:32:15.155Z,17.68
2022-10-05T03:34:45.494Z,17.68
2022-10-05T03:37:15.627Z,17.70
2022-10-05T03:39:49.503Z,17.77
2022-10-05T03:42:25.128Z,17.68
2022-10-05T03:44:52.543Z,17.70
2022-10-05T03:47:25.541Z,17.63
2022-10-05T03:50:19.258Z,17.74
2022-10-05T03:52:58.677Z,17.84
2022-10-05T03:55:30.310Z,17.84
2022-10-05T03:57:58.446Z,17.84
2022-10-05T04:00:27.573Z,17.83
2022-10-05T04:03:14.080Z,17.70
2022-10-05T04:05:51.953Z,17.71
2022-10-05T04:08:19.407Z,17.78
2022-10-05T04:10:48.308Z,17.76
2022-10-05T04:13:34.427Z,17.85
2022-10-05T04:16:04.486Z,17.80
2022-10-05T04:18:36.137Z,17.85
2022-10-05T04:21:08.849Z,17.78
2022-10-05T04:23:39.386Z,17.76
2022-10-05T04:26:09.063Z,17.81
2022-10-05T04:28:36.265Z,17.57
2022-10-05T04:31:03.854Z,17.69
2022-10-05T04:33:31.894Z,17.61
2022-10-05T04:35:59.393Z,17.60
2022-10-05T04:38:29.558Z,17.68
2022-10-05T04:40:59.865Z,17.65
2022-10-05T04:43:30.030Z,17.62
2022-10-05T04:46:03.492Z,17.66
2022-10-05T04:48:30.557Z,17.71
2022-10-05T04:51:05.501Z,17.69
2022-10-05T04:53:35.500Z,17.69
2022-10-05T04:56:12.898Z,17.61
2022-10-05T04:58:42.523Z,17.63
2022-10-05T05:01:10.829Z,17.61
2022-10-05T05:03:48.987Z,17.63
2022-10-05T05:06:36.175Z,17.70
2022-10-05T05:09:10.071Z,17.61
2022-10-05T05:11:47.032Z,17.63
2022-10-05T05:14:17.461Z,17.57
2022-10-05T05:16:46.412Z,17.50
2022-10-05T05:19:52.671Z,17.57
2022-10-05T05:22:36.190Z,17.65
2022-10-05T05:25:22.489Z,17.61
2022-10-05T05:27:54.827Z,17.84
2022-10-05T05:30:23.996Z,17.74
2022-10-05T05:33:05.101Z,17.71
2022-10-05T05:35:41.710Z,17.57
2022-10-05T05:38:27.791Z,17.77
2022-10-05T05:41:08.188Z,17.80
2022-10-05T05:43:54.826Z,17.99
2022-10-05T05:46:58.262Z,17.69
2022-10-05T05:49:30.974Z,16.56
2022-10-05T05:51:59.723Z,15.43
2022-10-05T05:54:29.957Z,15.80
2022-10-05T05:57:08.093Z,16.69
2022-10-05T05:59:41.543Z,17.22
2022-10-05T06:02:13.099Z,17.69
2022-10-05T06:04:40.903Z,16.56
2022-10-05T06:07:10.281Z,15.94
2022-10-05T06:09:39.904Z,16.43
2022-10-05T06:12:12.700Z,15.58
2022-10-05T06:14:39.791Z,15.86
2022-10-05T06:17:11.747Z,16.90
2022-10-05T06:19:39.233Z,17.26
2022-10-05T06:22:25.309Z,17.85
2022-10-05T06:24:53.336Z,17.40
2022-10-05T06:27:27.266Z,16.19
2022-10-05T06:29:54.848Z,17.31
2022-10-05T06:32:35.285Z,15.95
2022-10-05T06:35:08.912Z,16.78
2022-10-05T06:37:42.270Z,16.64
2022-10-05T06:40:31.318Z,17.11
2022-10-05T06:43:02.194Z,17.27
2022-10-05T06:45:56.922Z,18.00
2022-10-05T06:48:38.103Z,17.92
2022-10-05T06:51:14.667Z,18.10
2022-10-05T06:53:45.842Z,17.87
2022-10-05T06:56:16.871Z,18.52
2022-10-05T06:59:03.885Z,18.08
2022-10-05T07:01:34.297Z,18.17
2022-10-05T07:04:20.133Z,18.28
2022-10-05T07:07:01.736Z,18.23
2022-10-05T07:09:48.471Z,18.68
2022-10-05T07:12:16.114Z,18.94
2022-10-05T07:14:51.837Z,18.71
2022-10-05T07:17:19.219Z,18.99
2022-10-05T07:19:58.687Z,18.15
2022-10-05T07:22:41.653Z,18.68
2022-10-05T07:25:08.826Z,18.72
2022-10-05T07:27:38.722Z,18.63
2022-10-05T07:30:12.842Z,19.08
2022-10-05T07:32:41.013Z,19.43
2022-10-05T07:35:34.645Z,18.76
2022-10-05T07:38:11.475Z,18.34
2022-10-05T07:40:42.821Z,18.95
2022-10-05T07:43:14.485Z,19.37
2022-10-05T07:45:42.349Z,19.13
2022-10-05T07:48:19.538Z,19.19
2022-10-05T07:50:55.730Z,19.34
2022-10-05T07:53:25.000Z,19.27
2022-10-05T07:55:53.430Z,19.25
2022-10-05T07:58:28.924Z,19.44
2022-10-05T08:01:08.170Z,19.58
2022-10-05T08:03:39.961Z,19.78
2022-10-05T08:06:07.339Z,19.93
2022-10-05T08:08:53.934Z,19.92
2022-10-05T08:11:25.407Z,20.06
2022-10-05T08:13:56.415Z,20.08
2022-10-05T08:16:25.285Z,20.54
2022-10-05T08:18:57.054Z,20.74
2022-10-05T08:21:31.558Z,20.68
2022-10-05T08:24:00.527Z,20.82
2022-10-05T08:26:39.988Z,19.84
2022-10-05T08:29:25.708Z,20.86
2022-10-05T08:31:57.168Z,20.53
2022-10-05T08:34:47.673Z,20.86
2022-10-05T08:37:28.556Z,20.71
2022-10-05T08:39:58.700Z,21.07
2022-10-05T08:42:29.166Z,21.03
2022-10-05T08:45:11.394Z,20.36
2022-10-05T08:47:38.738Z,20.09
2022-10-05T08:50:38.357Z,20.83
2022-10-05T08:53:05.692Z,20.62
2022-10-05T08:55:34.950Z,20.31
2022-10-05T08:58:20.997Z,20.47
2022-10-05T09:00:51.904Z,20.40
2022-10-05T09:03:37.948Z,19.74
2022-10-05T09:06:24.162Z,20.29
2022-10-05T09:09:29.781Z,19.97
2022-10-05T09:12:15.962Z,20.16
2022-10-05T09:14:43.058Z,19.95
2022-10-05T09:17:13.646Z,20.57
2022-10-05T09:19:43.870Z,19.98
2022-10-05T09:22:14.261Z,20.77
2022-10-05T09:24:57.206Z,21.07
2022-10-05T09:27:30.366Z,21.25
2022-10-05T09:30:18.568Z,21.14
2022-10-05T09:33:04.881Z,20.55
2022-10-05T09:35:45.014Z,20.97
2022-10-05T09:38:31.667Z,21.12
2022-10-05T09:41:17.621Z,21.68
2022-10-05T09:43:51.946Z,21.66
2022-10-05T09:46:28.712Z,21.97
2022-10-05T09:49:22.553Z,22.44
2022-10-05T09:52:02.652Z,21.95
2022-10-05T09:54:45.386Z,22.09
2022-10-05T09:57:31.135Z,20.84
2022-10-05T10:00:21.742Z,21.33
2022-10-05T10:02:49.244Z,22.04
2022-10-05T10:05:16.353Z,21.19
2022-10-05T10:08:04.727Z,21.20
2022-10-05T10:10:52.462Z,22.04
2022-10-05T10:13:55.885Z,21.02
2022-10-05T10:16:34.333Z,21.43
2022-10-05T10:19:22.196Z,21.42
2022-10-05T10:21:52.549Z,21.75
2022-10-05T10:24:24.792Z,21.72
2022-10-05T10:27:02.206Z,21.19
2022-10-05T10:29:37.798Z,21.27
2022-10-05T10:32:05.193Z,21.99
2022-10-05T10:34:40.312Z,22.12
2022-10-05T10:37:29.841Z,22.36
2022-10-05T10:39:56.909Z,22.48
2022-10-05T10:42:26.249Z,21.84
2022-10-05T10:44:58.879Z,22.03
2022-10-05T10:47:42.484Z,22.56
2022-10-05T10:50:18.426Z,21.49
2022-10-05T10:53:04.536Z,22.36
2022-10-05T10:55:35.236Z,22.96
2022-10-05T10:58:02.560Z,23.02
2022-10-05T11:00:47.392Z,22.39
2022-10-05T11:03:33.475Z,22.96
2022-10-05T11:06:07.761Z,22.52
2022-10-05T11:08:44.188Z,22.63
2022-10-05T11:11:25.134Z,23.22
2022-10-05T11:14:11.150Z,23.02
2022-10-05T11:16:57.977Z,23.33
2022-10-05T11:19:59.616Z,22.24
2022-10-05T11:22:35.820Z,22.77
2022-10-05T11:25:11.029Z,22.15
2022-10-05T11:27:56.543Z,22.91
2022-10-05T11:30:26.915Z,22.00
2022-10-05T11:32:56.785Z,22.72
2022-10-05T11:35:27.104Z,22.97
2022-10-05T11:37:54.177Z,23.47
2022-10-05T11:40:33.208Z,23.68
2022-10-05T11:43:03.424Z,23.53
2022-10-05T11:45:36.958Z,23.63
2022-10-05T11:48:23.225Z,23.90
2022-10-05T11:51:09.171Z,23.72
2022-10-05T11:53:37.640Z,24.20
2022-10-05T11:56:21.936Z,24.64
2022-10-05T11:58:55.655Z,24.55
2022-10-05T12:01:42.835Z,24.10
2022-10-05T12:04:18.266Z,23.41
2022-10-05T12:07:04.556Z,23.98
2022-10-05T12:10:05.439Z,24.58
2022-10-05T12:12:45.137Z,24.02
2022-10-05T12:15:23.481Z,24.35
2022-10-05T12:18:00.121Z,23.64
2022-10-05T12:20:40.762Z,24.21
2022-10-05T12:23:13.069Z,23.31
2022-10-05T12:25:43.633Z,23.65
2022-10-05T12:28:15.787Z,23.63
2022-10-05T12:30:58.727Z,23.79
2022-10-05T12:33:45.110Z,23.34
2022-10-05T12:36:17.285Z,23.44
2022-10-05T12:38:44.731Z,23.41
2022-10-05T12:41:18.714Z,23.46
2022-10-05T12:43:50.056Z,23.48
2022-10-05T12:46:49.639Z,23.66
2022-10-05T12:49:19.968Z,23.94
2022-10-05T12:51:56.110Z,23.85
2022-10-05T12:54:35.057Z,24.02
2022-10-05T12:57:13.082Z,23.90
2022-10-05T13:00:00.759Z,24.62
2022-10-05T13:02:42.300Z,24.42
2022-10-05T13:05:09.637Z,24.10
2022-10-05T13:07:38.599Z,24.28
2022-10-05T13:10:09.004Z,24.60
2022-10-05T13:12:47.928Z,24.72
2022-10-05T13:15:23.944Z,23.59
2022-10-05T13:18:18.223Z,24.29
2022-10-05T13:20:57.937Z,24.85
2022-10-05T13:23:31.372Z,24.84
2022-10-05T13:26:01.742Z,24.63
2022-10-05T13:28:35.457Z,24.16
2022-10-05T13:31:07.220Z,24.44
2022-10-05T13:33:49.981Z,24.46
2022-10-05T13:36:18.975Z,24.13
2022-10-05T13:38:46.576Z,24.45
2022-10-05T13:41:45.938Z,24.09
2022-10-05T13:44:18.950Z,24.85
2022-10-05T13:46:49.835Z,24.88
2022-10-05T13:49:22.061Z,24.37
2022-10-05T13:51:59.005Z,24.59
2022-10-05T13:54:45.373Z,24.98
2022-10-05T13:57:48.026Z,24.92
2022-10-05T14:00:18.794Z,24.77
2022-10-05T14:02:53.123Z,24.58
2022-10-05T14:05:27.181Z,24.90
2022-10-05T14:08:04.146Z,25.29
2022-10-05T14:10:40.635Z,24.91
2022-10-05T14:13:27.807Z,24.85
2022-10-05T14:16:13.525Z,23.32
2022-10-05T14:19:11.245Z,23.82
2022-10-05T14:21:57.110Z,24.81
2022-10-05T14:24:43.579Z,24.56
2022-10-05T14:27:18.201Z,24.95
2022-10-05T14:29:45.601Z,25.04
2022-10-05T14:32:13.771Z,24.25
2022-10-05T14:34:59.843Z,24.33
2022-10-05T14:37:32.106Z,24.78
2022-10-05T14:40:03.369Z,24.77
2022-10-05T14:42:31.976Z,24.98
2022-10-05T14:45:00.243Z,24.63
2022-10-05T14:47:30.260Z,25.39
2022-10-05T14:50:14.002Z,25.07
2022-10-05T14:52:43.137Z,25.04
2022-10-05T14:55:17.773Z,24.15
2022-10-05T14:57:52.057Z,24.76
2022-10-05T15:00:19.588Z,25.13
2022-10-05T15:02:58.977Z,25.17
2022-10-05T15:05:45.212Z,24.86
2022-10-05T15:08:31.286Z,24.47
2022-10-05T15:11:20.210Z,24.49
2022-10-05T15:13:50.239Z,24.54
2022-10-05T15:16:24.992Z,24.24
2022-10-05T15:18:58.232Z,23.38
2022-10-05T15:21:32.401Z,24.03
2022-10-05T15:24:00.952Z,24.21
2022-10-05T15:26:36.267Z,23.79
2022-10-05T15:29:06.205Z,24.02
2022-10-05T15:31:39.388Z,24.65
2022-10-05T15:34:11.444Z,24.40
2022-10-05T15:36:54.161Z,24.05
2022-10-05T15:39:25.342Z,24.30
2022-10-05T15:41:55.450Z,24.30
2022-10-05T15:44:36.406Z,24.21
2022-10-05T15:47:05.206Z,24.01
2022-10-05T15:49:50.928Z,24.26
2022-10-05T15:52:23.905Z,24.32
2022-10-05T15:55:09.572Z,24.07
2022-10-05T15:57:55.647Z,24.37
2022-10-05T16:00:23.220Z,24.14
2022-10-05T16:02:52.096Z,23.95
2022-10-05T16:05:59.500Z,23.63
2022-10-05T16:08:51.342Z,24.14
2022-10-05T16:11:30.712Z,23.53
2022-10-05T16:14:17.477Z,22.41
2022-10-05T16:17:00.715Z,22.61
2022-10-05T16:19:47.040Z,22.91
2022-10-05T16:22:22.222Z,23.69
2022-10-05T16:25:01.950Z,23.38
2022-10-05T16:27:42.101Z,23.53
2022-10-05T16:30:10.495Z,23.44
2022-10-05T16:32:38.566Z,23.37
2022-10-05T16:35:10.779Z,23.59
2022-10-05T16:37:45.342Z,23.84
2022-10-05T16:40:15.182Z,23.73
2022-10-05T16:43:01.487Z,24.04
2022-10-05T16:45:46.871Z,23.68
2022-10-05T16:48:23.647Z,23.73
2022-10-05T16:51:09.799Z,23.40
2022-10-05T16:53:38.636Z,23.44
2022-10-05T16:56:10.360Z,23.52
2022-10-05T16:58:56.424Z,23.66
2022-10-05T17:01:23.567Z,23.46
2022-10-05T17:03:53.759Z,23.19
2022-10-05T17:06:31.090Z,22.87
2022-10-05T17:09:12.018Z,22.68
2022-10-05T17:12:01.050Z,22.97
2022-10-05T17:14:31.422Z,23.20
2022-10-05T17:17:15.826Z,23.17
2022-10-05T17:19:53.160Z,23.04
2022-10-05T17:22:23.610Z,23.20
2022-10-05T17:24:50.941Z,23.00
2022-10-05T17:27:18.071Z,23.01
2022-10-05T17:29:47.661Z,22.81
2022-10-05T17:32:15.711Z,23.06
2022-10-05T17:35:03.035Z,22.90
2022-10-05T17:37:36.606Z,22.57
2022-10-05T17:40:28.609Z,22.73
2022-10-05T17:43:01.181Z,22.78
2022-10-05T17:45:31.378Z,22.70
2022-10-05T17:47:59.527Z,22.47
2022-10-05T17:50:57.997Z,22.39
2022-10-05T17:54:02.440Z,22.56
2022-10-05T17:56:33.775Z,22.00
2022-10-05T17:59:02.675Z,22.17
2022-10-05T18:01:31.573Z,22.31
2022-10-05T18:04:11.294Z,22.33
2022-10-05T18:06:38.691Z,22.25
2022-10-05T18:09:20.753Z,21.95
2022-10-05T18:12:06.602Z,21.91
2022-10-05T18:14:52.683Z,22.24
2022-10-05T18:17:42.363Z,20.95
2022-10-05T18:20:28.422Z,21.92
2022-10-05T18:23:01.524Z,21.87
2022-10-05T18:25:29.637Z,21.67
2022-10-05T18:28:06.199Z,21.85
2022-10-05T18:30:39.400Z,21.69
2022-10-05T18:33:33.352Z,21.96
2022-10-05T18:36:00.894Z,21.56
2022-10-05T18:38:31.021Z,21.82
2022-10-05T18:41:18.361Z,21.80
2022-10-05T18:43:55.419Z,21.93
2022-10-05T18:46:22.923Z,21.63
2022-10-05T18:48:50.338Z,21.71
2022-10-05T18:51:31.571Z,21.75
2022-10-05T18:53:59.272Z,21.32
2022-10-05T18:56:45.764Z,21.56
2022-10-05T18:59:18.569Z,21.55
2022-10-05T19:01:50.778Z,22.05
2022-10-05T19:04:24.650Z,21.87
2022-10-05T19:06:52.147Z,21.98
2022-10-05T19:09:34.903Z,21.75
2022-10-05T19:12:09.319Z,21.39
2022-10-05T19:14:37.904Z,21.89
2022-10-05T19:17:08.084Z,21.55
2022-10-05T19:19:38.594Z,21.67
2022-10-05T19:22:25.144Z,21.45
2022-10-05T19:24:55.736Z,21.51
2022-10-05T19:27:27.728Z,21.49
2022-10-05T19:30:01.338Z,21.52
2022-10-05T19:32:47.161Z,21.74
2022-10-05T19:35:19.367Z,21.61
2022-10-05T19:37:59.219Z,21.76
2022-10-05T19:40:28.043Z,21.57
2022-10-05T19:43:01.635Z,21.79
2022-10-05T19:45:29.612Z,21.69
2022-10-05T19:48:07.668Z,21.72
2022-10-05T19:50:35.620Z,21.48
2022-10-05T19:53:13.327Z,21.24
2022-10-05T19:55:41.787Z,21.59
2022-10-05T19:58:26.221Z,21.38
2022-10-05T20:00:53.714Z,21.19
2022-10-05T20:03:29.107Z,20.97
2022-10-05T20:05:57.436Z,21.29
2022-10-05T20:08:32.217Z,21.08
2022-10-05T20:11:06.975Z,21.11
2022-10-05T20:13:35.335Z,21.02
2022-10-05T20:16:25.362Z,21.02
2022-10-05T20:19:11.521Z,21.15
2022-10-05T20:21:52.048Z,21.01
2022-10-05T20:24:25.959Z,21.20
2022-10-05T20:27:06.237Z,21.05
2022-10-05T20:29:40.997Z,20.96
2022-10-05T20:32:12.676Z,20.89
2022-10-05T20:34:41.539Z,20.97
2022-10-05T20:37:11.807Z,20.95
2022-10-05T20:39:39.033Z,20.78
2022-10-05T20:42:07.425Z,20.97
2022-10-05T20:44:34.946Z,20.93
2022-10-05T20:47:02.120Z,21.15
2022-10-05T20:49:31.041Z,21.07
2022-10-05T20:51:58.543Z,21.23
2022-10-05T20:54:25.985Z,20.99
2022-10-05T20:56:54.908Z,21.00
2022-10-05T20:59:22.536Z,20.95
2022-10-05T21:01:49.698Z,20.94
2022-10-05T21:04:17.925Z,20.93
2022-10-05T21:06:45.179Z,21.16
2022-10-05T21:09:14.927Z,21.12
2022-10-05T21:11:42.615Z,21.20
2022-10-05T21:14:10.343Z,20.95
2022-10-05T21:16:38.341Z,21.02
2022-10-05T21:19:14.700Z,21.14
2022-10-05T21:21:42.637Z,21.20
2022-10-05T21:24:11.200Z,21.13
2022-10-05T21:26:38.313Z,21.07
2022-10-05T21:29:10.239Z,21.23
2022-10-05T21:31:40.042Z,21.23
2022-10-05T21:34:07.311Z,21.22
2022-10-05T21:36:36.026Z,21.04
2022-10-05T21:39:03.477Z,20.88
2022-10-05T21:41:30.611Z,21.08
2022-10-05T21:43:57.811Z,21.16
2022-10-05T21:46:28.156Z,21.19
2022-10-05T21:48:55.877Z,21.04
2022-10-05T21:51:23.934Z,21.11
2022-10-05T21:53:58.419Z,21.02
2022-10-05T21:56:26.187Z,20.79
2022-10-05T21:58:53.642Z,20.79
2022-10-05T22:01:22.898Z,20.80
2022-10-05T22:03:50.573Z,20.78
2022-10-05T22:06:17.689Z,20.94
2022-10-05T22:08:45.016Z,20.88
2022-10-05T22:11:13.588Z,20.83
2022-10-05T22:13:41.988Z,20.77
2022-10-05T22:16:09.143Z,20.73
2022-10-05T22:18:36.534Z,20.66
2022-10-05T22:21:04.562Z,20.70
2022-10-05T22:23:33.666Z,20.78
2022-10-05T22:26:01.047Z,20.71
2022-10-05T22:28:28.464Z,20.77
2022-10-05T22:30:56.016Z,20.60
2022-10-05T22:33:23.404Z,20.59
2022-10-05T22:35:50.583Z,20.51
2022-10-05T22:38:17.688Z,20.62
2022-10-05T22:40:45.063Z,20.71
2022-10-05T22:43:12.308Z,20.76
2022-10-05T22:45:39.550Z,20.73
2022-10-05T22:48:06.951Z,20.75
2022-10-05T22:50:34.135Z,20.79
2022-10-05T22:53:01.313Z,20.79
2022-10-05T22:55:29.581Z,20.71
2022-10-05T22:57:56.691Z,20.76
2022-10-05T23:00:35.164Z,20.79
2022-10-05T23:03:08.027Z,20.76
2022-10-05T23:05:35.233Z,20.71
2022-10-05T23:08:02.359Z,20.78
2022-10-05T23:10:29.750Z,20.74
2022-10-05T23:13:00.742Z,20.79
2022-10-05T23:15:28.314Z,20.79
2022-10-05T23:17:57.382Z,20.75
2022-10-05T23:20:24.790Z,20.82
2022-10-05T23:22:51.942Z,20.87
2022-10-05T23:25:19.421Z,20.89
2022-10-05T23:27:46.528Z,20.85
2022-10-05T23:30:13.675Z,20.76
2022-10-05T23:32:41.579Z,20.77
2022-10-05T23:35:09.406Z,20.89
2022-10-05T23:37:37.459Z,20.75
2022-10-05T23:40:05.887Z,20.79
2022-10-05T23:42:33.015Z,20.73
2022-10-05T23:45:00.168Z,20.71
2022-10-05T23:47:27.538Z,20.50
2022-10-05T23:49:55.478Z,20.74
2022-10-05T23:52:25.134Z,20.81
2022-10-05T23:54:52.550Z,20.84
2022-10-05T23:57:19.728Z,20.88
2022-10-05T23:59:47.082Z,20.89
